createdAt,value
2022-11-14T00:00:24.100Z,134.35
2022-11-14T00:02:50.688Z,113.40
2022-11-14T00:05:17.572Z,117.05
2022-11-14T00:07:44.735Z,143.80
2022-11-14T00:10:11.534Z,134.32
2022-11-14T00:12:38.202Z,123.00
2022-11-14T00:15:05.357Z,107.80
2022-11-14T00:17:31.876Z,141.30
2022-11-14T00:19:58.487Z,133.10
2022-11-14T00:22:25.064Z,112.22
2022-11-14T00:24:51.553Z,119.40
2022-11-14T00:27:18.226Z,120.53
2022-11-14T00:29:44.750Z,88.57
2022-11-14T00:32:11.401Z,77.63
2022-11-14T00:34:37.953Z,82.60
2022-11-14T00:37:04.594Z,80.85
2022-11-14T00:39:31.225Z,74.40
2022-11-14T00:41:57.794Z,80.78
2022-11-14T00:44:24.380Z,65.75
2022-11-14T00:46:50.918Z,66.78
2022-11-14T00:49:17.447Z,80.05
2022-11-14T00:51:43.925Z,78.55
2022-11-14T00:54:10.451Z,67.25
2022-11-14T00:56:37.051Z,84.30
2022-11-14T00:59:03.621Z,71.75
2022-11-14T01:01:30.149Z,72.53
2022-11-14T01:03:56.691Z,92.25
2022-11-14T01:06:23.246Z,78.72
2022-11-14T01:08:53.095Z,64.78
2022-11-14T01:11:21.644Z,65.10
2022-11-14T01:13:48.230Z,61.30
2022-11-14T01:16:14.935Z,57.97
2022-11-14T01:18:42.051Z,67.18
2022-11-14T01:21:11.204Z,60.55
2022-11-14T01:23:38.349Z,66.65
2022-11-14T01:26:08.596Z,63.63
2022-11-14T01:28:35.537Z,53.42
2022-11-14T01:31:09.310Z,56.50
2022-11-14T01:33:35.960Z,63.17
2022-11-14T01:36:02.508Z,56.72
2022-11-14T01:38:29.285Z,48.47
2022-11-14T01:40:56.027Z,58.28
2022-11-14T01:43:37.536Z,71.45
2022-11-14T01:46:10.830Z,53.90
2022-11-14T01:48:45.778Z,56.33
2022-11-14T01:51:15.389Z,48.58
2022-11-14T01:53:44.405Z,57.08
2022-11-14T01:56:15.135Z,63.75
2022-11-14T01:58:45.941Z,50.47
2022-11-14T02:01:13.392Z,43.75
2022-11-14T02:03:42.757Z,41.92
2022-11-14T02:06:13.512Z,45.40
2022-11-14T02:08:41.385Z,36.88
2022-11-14T02:11:10.987Z,40.53
2022-11-14T02:13:38.272Z,41.05
2022-11-14T02:16:06.179Z,41.90
2022-11-14T02:18:32.862Z,37.00
2022-11-14T02:20:59.409Z,36.65
2022-11-14T02:23:28.471Z,37.97
2022-11-14T02:25:55.346Z,41.15
2022-11-14T02:28:22.267Z,36.63
2022-11-14T02:30:49.300Z,33.40
2022-11-14T02:33:16.167Z,40.40
2022-11-14T02:35:42.819Z,31.60
2022-11-14T02:38:09.472Z,41.28
2022-11-14T02:40:36.003Z,35.22
2022-11-14T02:43:02.522Z,36.22
2022-11-14T02:45:29.079Z,32.63
2022-11-14T02:47:55.710Z,38.63
2022-11-14T02:50:22.387Z,34.53
2022-11-14T02:52:49.195Z,37.13
2022-11-14T02:55:15.887Z,34.97
2022-11-14T02:57:42.394Z,32.88
2022-11-14T03:00:14.561Z,37.40
2022-11-14T03:02:41.900Z,34.35
2022-11-14T03:05:08.764Z,30.45
2022-11-14T03:07:35.501Z,28.77
2022-11-14T03:10:02.299Z,28.77
2022-11-14T03:12:28.799Z,31.88
2022-11-14T03:14:55.312Z,29.95
2022-11-14T03:17:24.616Z,29.45
2022-11-14T03:19:51.309Z,34.80
2022-11-14T03:22:17.848Z,32.83
2022-11-14T03:24:44.486Z,31.38
2022-11-14T03:27:10.991Z,31.88
2022-11-14T03:29:37.507Z,31.48
2022-11-14T03:32:04.269Z,31.15
2022-11-14T03:34:30.788Z,33.88
2022-11-14T03:36:57.395Z,34.58
2022-11-14T03:39:23.931Z,39.05
2022-11-14T03:41:50.446Z,36.10
2022-11-14T03:44:16.960Z,33.70
2022-11-14T03:46:43.530Z,34.63
2022-11-14T03:49:10.150Z,36.00
2022-11-14T03:51:36.683Z,36.92
2022-11-14T03:54:03.337Z,35.92
2022-11-14T03:56:29.857Z,32.85
2022-11-14T03:58:56.441Z,32.28
2022-11-14T04:01:23.055Z,32.92
2022-11-14T04:03:49.624Z,35.47
2022-11-14T04:06:16.122Z,29.52
2022-11-14T04:08:42.676Z,31.77
2022-11-14T04:11:09.222Z,29.27
2022-11-14T04:13:35.848Z,27.67
2022-11-14T04:16:02.370Z,32.10
2022-11-14T04:18:29.250Z,27.60
2022-11-14T04:20:56.040Z,27.65
2022-11-14T04:23:22.594Z,27.02
2022-11-14T04:25:49.379Z,30.77
2022-11-14T04:28:16.108Z,25.58
2022-11-14T04:30:42.821Z,24.85
2022-11-14T04:33:09.402Z,35.05
2022-11-14T04:35:35.915Z,31.85
2022-11-14T04:38:03.466Z,33.15
2022-11-14T04:40:30.052Z,36.05
2022-11-14T04:42:56.629Z,27.73
2022-11-14T04:45:23.271Z,30.55
2022-11-14T04:47:49.875Z,40.17
2022-11-14T04:50:16.551Z,34.22
2022-11-14T04:52:43.194Z,36.88
2022-11-14T04:55:10.291Z,41.75
2022-11-14T04:57:36.813Z,34.58
2022-11-14T05:00:04.995Z,40.90
2022-11-14T05:02:32.852Z,39.90
2022-11-14T05:04:59.389Z,37.15
2022-11-14T05:07:25.952Z,41.47
2022-11-14T05:09:52.559Z,47.20
2022-11-14T05:12:19.082Z,44.25
2022-11-14T05:14:45.581Z,46.60
2022-11-14T05:17:12.117Z,50.50
2022-11-14T05:19:38.647Z,53.05
2022-11-14T05:22:05.144Z,58.95
2022-11-14T05:24:31.837Z,59.72
2022-11-14T05:26:59.025Z,61.67
2022-11-14T05:29:25.546Z,59.67
2022-11-14T05:31:52.087Z,56.97
2022-11-14T05:34:18.658Z,72.57
2022-11-14T05:36:45.191Z,54.92
2022-11-14T05:39:11.699Z,61.33
2022-11-14T05:41:38.269Z,64.57
2022-11-14T05:44:05.117Z,60.72
2022-11-14T05:46:31.685Z,54.47
2022-11-14T05:48:58.255Z,62.33
2022-11-14T05:51:24.752Z,70.60
2022-11-14T05:53:51.270Z,54.38
2022-11-14T05:56:17.932Z,62.55
2022-11-14T05:58:44.486Z,39.95
2022-11-14T06:01:13.351Z,35.38
2022-11-14T06:03:42.320Z,38.45
2022-11-14T06:06:11.514Z,35.20
2022-11-14T06:08:38.469Z,39.55
2022-11-14T06:11:13.812Z,46.63
2022-11-14T06:13:40.751Z,49.30
2022-11-14T06:16:11.075Z,47.15
2022-11-14T06:18:37.927Z,47.58
2022-11-14T06:21:16.408Z,51.83
2022-11-14T06:23:43.934Z,47.53
2022-11-14T06:26:23.888Z,49.80
2022-11-14T06:28:51.641Z,42.90
2022-11-14T06:31:20.055Z,51.25
2022-11-14T06:33:47.363Z,47.85
2022-11-14T06:36:14.392Z,42.80
2022-11-14T06:38:42.251Z,45.47
2022-11-14T06:41:14.628Z,52.50
2022-11-14T06:43:43.379Z,47.33
2022-11-14T06:46:12.286Z,54.45
2022-11-14T06:48:39.450Z,41.35
2022-11-14T06:51:07.853Z,53.40
2022-11-14T06:53:36.331Z,52.67
2022-11-14T06:56:08.958Z,58.67
2022-11-14T06:58:39.033Z,54.75
2022-11-14T07:01:14.015Z,60.30
2022-11-14T07:03:41.516Z,54.97
2022-11-14T07:06:09.517Z,22.50
2022-11-14T07:08:36.175Z,55.85
2022-11-14T07:11:08.160Z,48.08
2022-11-14T07:13:35.838Z,47.28
2022-11-14T07:16:03.292Z,46.65
2022-11-14T07:18:32.204Z,48.95
2022-11-14T07:21:00.462Z,52.85
2022-11-14T07:23:27.061Z,51.35
2022-11-14T07:25:53.952Z,57.58
2022-11-14T07:28:20.575Z,52.92
2022-11-14T07:30:47.503Z,52.30
2022-11-14T07:33:14.178Z,47.20
2022-11-14T07:35:40.714Z,49.50
2022-11-14T07:38:07.377Z,48.55
2022-11-14T07:40:33.927Z,55.58
2022-11-14T07:43:01.280Z,53.80
2022-11-14T07:45:28.988Z,46.25
2022-11-14T07:47:57.354Z,49.75
2022-11-14T07:50:24.956Z,47.17
2022-11-14T07:52:55.480Z,47.80
2022-11-14T07:55:22.204Z,49.42
2022-11-14T07:57:52.899Z,50.33
2022-11-14T08:00:19.526Z,48.63
2022-11-14T08:02:46.609Z,49.53
2022-11-14T08:05:13.212Z,43.22
2022-11-14T08:07:39.735Z,46.55
2022-11-14T08:10:06.919Z,43.70
2022-11-14T08:12:33.435Z,49.60
2022-11-14T08:14:59.949Z,50.25
2022-11-14T08:17:26.509Z,41.20
2022-11-14T08:19:53.017Z,44.33
2022-11-14T08:22:19.516Z,39.72
2022-11-14T08:24:46.048Z,47.85
2022-11-14T08:27:12.560Z,42.88
2022-11-14T08:29:39.213Z,47.33
2022-11-14T08:32:05.801Z,43.30
2022-11-14T08:34:32.413Z,39.50
2022-11-14T08:36:59.171Z,47.05
2022-11-14T08:39:25.688Z,46.95
2022-11-14T08:41:52.218Z,43.25
2022-11-14T08:44:18.751Z,38.22
2022-11-14T08:46:45.268Z,37.40
2022-11-14T08:49:11.852Z,42.17
2022-11-14T08:51:38.493Z,42.30
2022-11-14T08:54:05.090Z,37.38
2022-11-14T08:56:31.610Z,38.58
2022-11-14T08:58:58.203Z,38.80
2022-11-14T09:01:24.736Z,33.47
2022-11-14T09:03:54.193Z,35.45
2022-11-14T09:06:25.086Z,33.10
2022-11-14T09:08:51.619Z,42.65
2022-11-14T09:11:19.378Z,38.40
2022-11-14T09:13:46.230Z,39.97
2022-11-14T09:16:12.766Z,37.08
2022-11-14T09:18:39.351Z,36.92
2022-11-14T09:21:08.581Z,31.83
2022-11-14T09:23:35.735Z,33.17
2022-11-14T09:26:09.852Z,33.28
2022-11-14T09:28:36.870Z,36.83
2022-11-14T09:31:06.607Z,38.05
2022-11-14T09:33:34.123Z,38.50
2022-11-14T09:36:05.837Z,37.55
2022-11-14T09:38:38.044Z,45.95
2022-11-14T09:41:25.127Z,42.88
2022-11-14T09:44:10.263Z,37.97
2022-11-14T09:46:50.128Z,37.47
2022-11-14T09:49:41.687Z,37.15
2022-11-14T09:52:26.428Z,45.30
2022-11-14T09:54:59.307Z,41.20
2022-11-14T09:57:27.307Z,34.95
2022-11-14T09:59:55.893Z,35.95
2022-11-14T10:02:52.651Z,36.67
2022-11-14T10:05:56.522Z,34.67
2022-11-14T10:08:44.988Z,37.33
2022-11-14T10:11:34.881Z,34.60
2022-11-14T10:14:15.630Z,38.55
2022-11-14T10:17:09.279Z,39.40
2022-11-14T10:19:58.518Z,34.20
2022-11-14T10:22:49.437Z,33.40
2022-11-14T10:25:47.266Z,39.17
2022-11-14T10:28:33.753Z,37.35
2022-11-14T10:31:41.939Z,29.35
2022-11-14T10:34:13.563Z,35.67
2022-11-14T10:36:47.398Z,32.58
2022-11-14T10:39:53.897Z,33.60
2022-11-14T10:42:30.721Z,33.90
2022-11-14T10:45:15.756Z,29.02
2022-11-14T10:48:00.607Z,32.13
2022-11-14T10:50:58.475Z,34.78
2022-11-14T10:53:43.662Z,29.02
2022-11-14T10:56:15.271Z,33.47
2022-11-14T10:58:49.028Z,44.08
2022-11-14T11:01:36.777Z,31.98
2022-11-14T11:04:29.476Z,32.05
2022-11-14T11:07:36.201Z,25.23
2022-11-14T11:10:22.522Z,22.50
2022-11-14T11:12:52.640Z,20.00
2022-11-14T11:15:24.933Z,18.85
2022-11-14T11:17:56.737Z,16.42
2022-11-14T11:20:26.666Z,17.48
2022-11-14T11:23:17.257Z,19.25
2022-11-14T11:25:43.991Z,17.10
2022-11-14T11:28:17.117Z,15.63
2022-11-14T11:30:58.202Z,15.02
2022-11-14T11:33:33.284Z,15.50
2022-11-14T11:36:04.586Z,16.08
2022-11-14T11:38:33.505Z,17.42
2022-11-14T11:44:16.740Z,16.15
2022-11-14T11:47:01.023Z,15.18
2022-11-14T11:49:30.580Z,15.40
2022-11-14T11:52:04.846Z,14.90
2022-11-14T11:54:46.296Z,18.70
2022-11-14T11:57:21.412Z,15.98
2022-11-14T11:59:59.364Z,14.27
2022-11-14T12:02:27.239Z,14.90
2022-11-14T12:04:56.934Z,14.70
2022-11-14T12:07:40.825Z,16.02
2022-11-14T12:10:16.137Z,15.60
2022-11-14T12:12:45.352Z,21.00
2022-11-14T12:15:29.481Z,17.58
2022-11-14T12:18:12.462Z,16.95
2022-11-14T12:20:44.374Z,19.00
2022-11-14T12:23:22.506Z,17.05
2022-11-14T12:25:59.473Z,17.73
2022-11-14T12:28:59.470Z,16.70
2022-11-14T12:31:31.626Z,15.75
2022-11-14T12:36:33.616Z,16.85
2022-11-14T12:39:02.073Z,14.85
2022-11-14T12:41:32.532Z,14.38
2022-11-14T12:44:29.885Z,18.58
2022-11-14T12:47:05.516Z,17.35
2022-11-14T12:49:47.263Z,17.00
2022-11-14T12:52:44.545Z,16.60
2022-11-14T12:55:26.457Z,20.77
2022-11-14T12:58:12.580Z,16.73
2022-11-14T13:00:45.179Z,14.75
2022-11-14T13:03:30.814Z,15.32
2022-11-14T13:06:03.299Z,14.52
2022-11-14T13:08:39.219Z,14.82
2022-11-14T13:11:53.922Z,14.15
2022-11-14T13:14:39.869Z,15.05
2022-11-14T13:17:29.261Z,13.30
2022-11-14T13:20:15.607Z,13.70
2022-11-14T13:22:44.566Z,12.85
2022-11-14T13:25:11.070Z,13.10
2022-11-14T13:28:05.952Z,12.70
2022-11-14T13:31:12.538Z,13.27
2022-11-14T13:33:51.998Z,13.27
2022-11-14T13:36:35.148Z,14.85
2022-11-14T13:39:30.057Z,12.35
2022-11-14T13:41:56.508Z,12.63
2022-11-14T13:44:38.262Z,14.38
2022-11-14T13:47:23.959Z,11.40
2022-11-14T13:49:59.373Z,12.00
2022-11-14T13:52:29.501Z,10.77
2022-11-14T13:54:56.153Z,10.35
2022-11-14T13:57:28.269Z,12.45
2022-11-14T14:02:44.371Z,11.52
2022-11-14T14:05:32.779Z,14.07
2022-11-14T14:08:20.836Z,13.35
2022-11-14T14:11:10.090Z,11.48
2022-11-14T14:13:55.786Z,11.10
2022-11-14T14:16:40.355Z,12.43
2022-11-14T14:19:26.476Z,12.05
2022-11-14T14:22:04.410Z,14.30
2022-11-14T14:24:40.281Z,12.85
2022-11-14T14:27:32.729Z,12.32
2022-11-14T14:32:26.016Z,12.90
2022-11-14T14:34:56.991Z,15.63
2022-11-14T14:37:26.421Z,14.82
2022-11-14T14:40:01.342Z,14.35
2022-11-14T14:42:35.260Z,12.27
2022-11-14T14:45:03.549Z,11.25
2022-11-14T14:47:43.401Z,12.27
2022-11-14T14:50:20.073Z,14.55
2022-11-14T14:52:47.203Z,12.60
2022-11-14T14:55:28.818Z,12.20
2022-11-14T14:57:55.458Z,12.90
2022-11-14T15:00:26.641Z,13.02
2022-11-14T15:02:57.042Z,15.47
2022-11-14T15:05:29.544Z,13.65
2022-11-14T15:07:59.273Z,12.27
2022-11-14T15:10:29.780Z,14.55
2022-11-14T15:12:58.063Z,14.35
2022-11-14T15:15:28.540Z,14.68
2022-11-14T15:17:58.629Z,14.98
2022-11-14T15:20:28.275Z,16.20
2022-11-14T15:23:11.350Z,16.52
2022-11-14T15:25:38.040Z,14.60
2022-11-14T15:28:13.578Z,17.33
2022-11-14T15:30:40.154Z,13.88
2022-11-14T15:33:27.356Z,15.40
2022-11-14T15:36:11.075Z,15.65
2022-11-14T15:38:43.905Z,17.60
2022-11-14T15:41:24.299Z,14.88
2022-11-14T15:43:53.360Z,12.63
2022-11-14T15:46:36.085Z,19.25
2022-11-14T15:49:18.550Z,15.13
2022-11-14T15:51:48.606Z,20.20
2022-11-14T15:54:30.482Z,18.50
2022-11-14T15:57:00.206Z,18.92
2022-11-14T15:59:29.257Z,16.83
2022-11-14T16:02:04.472Z,14.57
2022-11-14T16:04:34.149Z,14.02
2022-11-14T16:07:00.794Z,18.05
2022-11-14T16:09:27.417Z,19.45
2022-11-14T16:11:53.920Z,16.35
2022-11-14T16:14:20.449Z,13.50
2022-11-14T16:16:47.035Z,12.38
2022-11-14T16:19:15.571Z,21.55
2022-11-14T16:21:42.725Z,17.15
2022-11-14T16:24:15.796Z,20.55
2022-11-14T16:26:42.369Z,18.08
2022-11-14T16:29:08.981Z,18.52
2022-11-14T16:31:36.577Z,16.38
2022-11-14T16:34:03.114Z,23.65
2022-11-14T16:36:29.653Z,20.65
2022-11-14T16:39:01.765Z,18.90
2022-11-14T16:41:28.800Z,23.15
2022-11-14T16:43:56.576Z,19.92
2022-11-14T16:46:24.391Z,21.73
2022-11-14T16:48:51.165Z,21.77
2022-11-14T16:51:46.136Z,30.65
2022-11-14T16:54:04.202Z,18.85
2022-11-14T16:56:31.438Z,20.73
2022-11-14T16:58:57.991Z,20.13
2022-11-14T17:01:24.790Z,21.05
2022-11-14T17:03:52.279Z,16.92
2022-11-14T17:06:18.969Z,17.17
2022-11-14T17:08:45.579Z,48.13
2022-11-14T17:11:12.139Z,180.80
2022-11-14T17:13:38.665Z,90.22
2022-11-14T17:16:05.568Z,103.32
2022-11-14T17:18:38.164Z,24.88
2022-11-14T17:21:07.541Z,22.10
2022-11-14T17:23:34.098Z,18.10
2022-11-14T17:26:09.928Z,20.40
2022-11-14T17:28:38.442Z,21.52
2022-11-14T17:31:08.887Z,21.48
2022-11-14T17:33:36.478Z,19.20
2022-11-14T17:36:05.716Z,19.73
2022-11-14T17:38:33.759Z,21.90
2022-11-14T17:41:00.436Z,26.17
2022-11-14T17:43:27.098Z,23.85
2022-11-14T17:45:55.668Z,23.48
2022-11-14T17:48:22.530Z,20.85
2022-11-14T17:50:49.196Z,23.48
2022-11-14T17:53:15.778Z,22.60
2022-11-14T17:55:42.379Z,21.38
2022-11-14T17:58:09.027Z,30.73
2022-11-14T18:00:36.026Z,20.52
2022-11-14T18:03:02.550Z,17.17
2022-11-14T18:05:29.155Z,18.90
2022-11-14T18:07:55.714Z,22.40
2022-11-14T18:10:22.208Z,21.50
2022-11-14T18:12:48.695Z,21.65
2022-11-14T18:15:15.388Z,25.00
2022-11-14T18:17:42.030Z,19.05
2022-11-14T18:20:09.175Z,23.10
2022-11-14T18:22:35.705Z,23.23
2022-11-14T18:25:07.478Z,20.75
2022-11-14T18:27:34.685Z,23.35
2022-11-14T18:30:13.802Z,23.80
2022-11-14T18:32:47.784Z,20.00
2022-11-14T18:35:14.268Z,28.05
2022-11-14T18:37:40.793Z,20.48
2022-11-14T18:40:14.781Z,22.48
2022-11-14T18:42:42.604Z,24.80
2022-11-14T18:45:09.512Z,21.88
2022-11-14T18:47:36.098Z,18.10
2022-11-14T18:50:03.909Z,22.48
2022-11-14T18:52:30.521Z,25.05
2022-11-14T18:54:57.013Z,24.02
2022-11-14T18:57:23.633Z,20.55
2022-11-14T18:59:50.253Z,22.63
2022-11-14T19:02:16.818Z,22.30
2022-11-14T19:04:43.455Z,19.73
2022-11-14T19:07:10.235Z,23.35
2022-11-14T19:09:37.774Z,22.52
2022-11-14T19:12:21.854Z,21.65
2022-11-14T19:14:53.115Z,18.50
2022-11-14T19:17:22.894Z,25.73
2022-11-14T19:19:50.361Z,25.30
2022-11-14T19:22:17.278Z,23.30
2022-11-14T19:24:46.589Z,22.67
2022-11-14T19:27:14.152Z,22.33
2022-11-14T19:29:40.875Z,22.92
2022-11-14T19:32:07.754Z,25.10
2022-11-14T19:34:34.401Z,20.45
2022-11-14T19:37:01.435Z,19.05
2022-11-14T19:39:28.562Z,24.13
2022-11-14T19:41:55.047Z,20.90
2022-11-14T19:44:21.577Z,23.42
2022-11-14T19:46:48.439Z,23.63
2022-11-14T19:49:15.282Z,27.45
2022-11-14T19:51:42.029Z,19.85
2022-11-14T19:54:10.054Z,20.63
2022-11-14T19:56:36.745Z,20.27
2022-11-14T19:59:09.662Z,24.20
2022-11-14T20:01:39.367Z,23.63
2022-11-14T20:04:07.370Z,20.67
2022-11-14T20:06:36.201Z,28.50
2022-11-14T20:09:06.100Z,23.05
2022-11-14T20:11:32.666Z,23.45
2022-11-14T20:13:59.938Z,23.45
2022-11-14T20:16:28.535Z,24.83
2022-11-14T20:18:59.072Z,19.85
2022-11-14T20:21:28.156Z,24.75
2022-11-14T20:23:54.755Z,23.85
2022-11-14T20:26:22.264Z,37.20
2022-11-14T20:28:52.065Z,27.65
2022-11-14T20:31:21.178Z,36.25
2022-11-14T20:33:49.155Z,40.75
2022-11-14T20:36:19.056Z,37.65
2022-11-14T20:38:45.805Z,38.25
2022-11-14T20:41:12.637Z,38.83
2022-11-14T20:43:39.957Z,39.10
2022-11-14T20:46:12.399Z,42.33
2022-11-14T20:48:39.395Z,40.03
2022-11-14T20:51:08.248Z,38.65
2022-11-14T20:53:34.879Z,45.22
2022-11-14T20:56:01.788Z,37.05
2022-11-14T20:58:28.614Z,39.78
2022-11-14T21:00:55.469Z,47.05
2022-11-14T21:03:22.442Z,36.80
2022-11-14T21:05:49.228Z,38.72
2022-11-14T21:08:16.885Z,43.05
2022-11-14T21:10:47.085Z,43.03
2022-11-14T21:13:36.351Z,41.58
2022-11-14T21:16:05.829Z,41.85
2022-11-14T21:18:32.781Z,44.13
2022-11-14T21:21:04.382Z,46.10
2022-11-14T21:23:31.487Z,48.28
2022-11-14T21:26:06.824Z,47.28
2022-11-14T21:28:35.029Z,49.20
2022-11-14T21:31:01.659Z,47.00
2022-11-14T21:33:30.868Z,37.25
2022-11-14T21:36:03.891Z,37.70
2022-11-14T21:38:38.541Z,39.40
2022-11-14T21:41:06.656Z,45.90
2022-11-14T21:43:34.129Z,46.75
2022-11-14T21:46:02.890Z,44.00
2022-11-14T21:48:37.483Z,47.20
2022-11-14T21:51:13.520Z,47.10
2022-11-14T21:53:41.196Z,36.03
2022-11-14T21:56:11.878Z,39.08
2022-11-14T21:58:38.747Z,37.63
2022-11-14T22:01:14.577Z,47.42
2022-11-14T22:04:00.931Z,43.13
2022-11-14T22:06:28.574Z,30.40
2022-11-14T22:08:55.922Z,30.27
2022-11-14T22:11:23.510Z,31.58
2022-11-14T22:13:50.415Z,30.20
2022-11-14T22:16:19.777Z,28.15
2022-11-14T22:18:47.037Z,31.73
2022-11-14T22:21:13.871Z,32.25
2022-11-14T22:23:40.366Z,30.88
2022-11-14T22:26:07.110Z,29.15
2022-11-14T22:28:33.753Z,36.00
2022-11-14T22:31:15.444Z,34.47
2022-11-14T22:33:46.665Z,34.45
2022-11-14T22:36:14.816Z,35.35
2022-11-14T22:38:42.330Z,37.55
2022-11-14T22:41:31.882Z,29.35
2022-11-14T22:44:00.054Z,27.15
2022-11-14T22:46:27.531Z,26.88
2022-11-14T22:48:54.606Z,28.92
2022-11-14T22:51:27.557Z,30.33
2022-11-14T22:53:56.344Z,27.20
2022-11-14T22:56:26.244Z,27.67
2022-11-14T22:58:52.822Z,30.35
2022-11-14T23:01:21.934Z,31.83
2022-11-14T23:03:53.458Z,32.17
2022-11-14T23:06:20.094Z,35.47
2022-11-14T23:08:46.844Z,34.72
2022-11-14T23:11:15.872Z,32.42
2022-11-14T23:13:44.839Z,33.15
2022-11-14T23:16:17.198Z,28.05
2022-11-14T23:18:44.383Z,28.10
2022-11-14T23:21:15.066Z,34.33
2022-11-14T23:23:42.287Z,32.53
2022-11-14T23:26:13.995Z,31.42
2022-11-14T23:28:40.782Z,28.13
2022-11-14T23:31:08.813Z,22.77
2022-11-14T23:33:35.483Z,30.92
2022-11-14T23:36:02.264Z,21.73
2022-11-14T23:38:32.034Z,23.88
2022-11-14T23:41:01.139Z,22.60
2022-11-14T23:43:29.546Z,19.05
2022-11-14T23:45:57.398Z,19.95
2022-11-14T23:48:24.504Z,12.48
2022-11-14T23:50:52.914Z,11.98
2022-11-14T23:53:20.104Z,12.00
2022-11-14T23:55:53.799Z,11.00
2022-11-14T23:58:21.802Z,9.18
